createdAt,value
2018-12-29T00:00:13.921Z,21.10
2018-12-29T00:02:42.661Z,19.83
2018-12-29T00:05:11.319Z,20.93
2018-12-29T00:07:39.856Z,22.83
2018-12-29T00:10:08.308Z,19.73
2018-12-29T00:12:36.755Z,21.53
2018-12-29T00:15:05.780Z,23.03
2018-12-29T00:17:34.284Z,20.93
2018-12-29T00:20:02.791Z,20.27
2018-12-29T00:22:31.246Z,21.13
2018-12-29T00:24:59.874Z,20.20
2018-12-29T00:27:28.313Z,20.83
2018-12-29T00:29:56.786Z,20.50
2018-12-29T00:32:26.563Z,20.63
2018-12-29T00:34:55.435Z,21.97
2018-12-29T00:37:23.885Z,19.83
2018-12-29T00:39:52.359Z,20.33
2018-12-29T00:42:20.877Z,20.10
2018-12-29T00:44:49.653Z,20.83
2018-12-29T00:47:18.247Z,19.13
2018-12-29T00:49:46.756Z,21.40
2018-12-29T00:52:15.320Z,19.90
2018-12-29T00:54:43.852Z,20.10
2018-12-29T00:57:12.320Z,20.30
2018-12-29T00:59:40.788Z,22.13
2018-12-29T01:02:09.254Z,21.63
2018-12-29T01:04:37.771Z,20.83
2018-12-29T01:07:06.496Z,21.73
2018-12-29T01:09:35.013Z,20.43
2018-12-29T01:12:03.575Z,22.20
2018-12-29T01:14:32.108Z,21.00
2018-12-29T01:17:00.622Z,21.17
2018-12-29T01:19:29.153Z,21.37
2018-12-29T01:21:57.886Z,21.20
2018-12-29T01:24:26.472Z,20.47
2018-12-29T01:26:54.974Z,20.70
2018-12-29T01:29:23.491Z,21.17
2018-12-29T01:31:51.976Z,20.00
2018-12-29T01:34:20.439Z,20.67
2018-12-29T01:36:48.899Z,21.83
2018-12-29T01:39:17.359Z,20.30
2018-12-29T01:41:45.817Z,20.13
2018-12-29T01:44:14.361Z,21.40
2018-12-29T01:46:42.882Z,22.67
2018-12-29T01:49:11.464Z,22.00
2018-12-29T01:51:39.904Z,21.67
2018-12-29T01:54:08.704Z,21.60
2018-12-29T01:56:37.170Z,20.63
2018-12-29T01:59:05.726Z,21.33
2018-12-29T02:01:34.241Z,24.57
2018-12-29T02:04:02.875Z,22.80
2018-12-29T02:06:32.433Z,22.73
2018-12-29T02:09:01.157Z,22.60
2018-12-29T02:11:29.664Z,22.40
2018-12-29T02:13:58.111Z,23.97
2018-12-29T02:16:26.709Z,23.10
2018-12-29T02:18:55.148Z,23.93
2018-12-29T02:21:23.712Z,23.17
2018-12-29T02:23:52.248Z,22.53
2018-12-29T02:26:20.769Z,25.33
2018-12-29T02:28:49.360Z,24.30
2018-12-29T02:31:17.881Z,24.67
2018-12-29T02:33:46.421Z,25.03
2018-12-29T02:36:14.957Z,21.67
2018-12-29T02:38:43.402Z,24.23
2018-12-29T02:41:12.017Z,25.53
2018-12-29T02:43:40.738Z,23.97
2018-12-29T02:46:09.213Z,24.17
2018-12-29T02:48:38.005Z,25.73
2018-12-29T02:51:06.468Z,25.53
2018-12-29T02:53:34.911Z,25.17
2018-12-29T02:56:03.374Z,26.20
2018-12-29T02:58:31.832Z,26.93
2018-12-29T03:01:00.350Z,27.67
2018-12-29T03:03:28.868Z,24.90
2018-12-29T03:05:57.325Z,25.73
2018-12-29T03:08:25.896Z,24.83
2018-12-29T03:10:54.488Z,27.27
2018-12-29T03:13:23.004Z,27.63
2018-12-29T03:15:51.784Z,27.03
2018-12-29T03:18:20.223Z,25.80
2018-12-29T03:20:48.688Z,27.77
2018-12-29T03:23:17.132Z,27.57
2018-12-29T03:25:45.602Z,25.33
2018-12-29T03:28:14.043Z,27.87
2018-12-29T03:30:42.510Z,28.60
2018-12-29T03:33:10.964Z,27.43
2018-12-29T03:35:39.425Z,27.13
2018-12-29T03:38:07.926Z,28.60
2018-12-29T03:40:36.442Z,27.80
2018-12-29T03:43:04.906Z,28.10
2018-12-29T03:45:33.353Z,28.70
2018-12-29T03:48:01.818Z,28.40
2018-12-29T03:50:30.259Z,29.77
2018-12-29T03:52:58.884Z,30.43
2018-12-29T03:55:27.384Z,28.43
2018-12-29T03:57:55.845Z,28.83
2018-12-29T04:00:24.304Z,29.27
2018-12-29T04:02:52.850Z,30.07
2018-12-29T04:05:21.358Z,30.10
2018-12-29T04:07:50.189Z,29.37
2018-12-29T04:10:18.623Z,29.47
2018-12-29T04:12:48.232Z,28.63
2018-12-29T04:15:16.682Z,29.77
2018-12-29T04:17:45.148Z,31.50
2018-12-29T04:20:13.664Z,29.60
2018-12-29T04:22:42.137Z,28.23
2018-12-29T04:25:10.584Z,29.23
2018-12-29T04:27:39.030Z,30.20
2018-12-29T04:30:07.565Z,30.50
2018-12-29T04:32:35.995Z,29.83
2018-12-29T04:35:05.096Z,29.93
2018-12-29T04:37:33.561Z,30.27
2018-12-29T04:40:02.032Z,28.87
2018-12-29T04:42:30.570Z,29.13
2018-12-29T04:44:59.088Z,30.07
2018-12-29T04:47:27.531Z,29.50
2018-12-29T04:49:56.000Z,30.60
2018-12-29T04:52:24.457Z,28.87
2018-12-29T04:54:52.940Z,29.53
2018-12-29T04:57:21.439Z,29.40
2018-12-29T04:59:49.904Z,30.27
2018-12-29T05:02:18.444Z,29.50
2018-12-29T05:04:46.980Z,28.47
2018-12-29T05:07:15.424Z,29.20
2018-12-29T05:09:43.879Z,29.13
2018-12-29T05:12:12.388Z,28.87
2018-12-29T05:14:40.856Z,27.90
2018-12-29T05:17:09.306Z,27.40
2018-12-29T05:19:38.129Z,30.53
2018-12-29T05:22:06.564Z,30.07
2018-12-29T05:24:35.011Z,30.13
2018-12-29T05:27:03.476Z,29.27
2018-12-29T05:29:31.995Z,27.17
2018-12-29T05:32:00.469Z,29.97
2018-12-29T05:34:29.196Z,28.50
2018-12-29T05:36:57.739Z,27.53
2018-12-29T05:39:26.197Z,26.23
2018-12-29T05:41:54.727Z,28.73
2018-12-29T05:44:23.172Z,27.83
2018-12-29T05:46:51.645Z,29.00
2018-12-29T05:49:20.088Z,27.90
2018-12-29T05:51:48.557Z,28.23
2018-12-29T05:54:17.004Z,30.33
2018-12-29T05:56:45.469Z,28.27
2018-12-29T05:59:13.988Z,28.07
2018-12-29T06:01:42.491Z,28.27
2018-12-29T06:04:10.946Z,28.80
2018-12-29T06:06:39.401Z,29.83
2018-12-29T06:09:07.916Z,27.40
2018-12-29T06:11:36.443Z,30.60
2018-12-29T06:14:04.897Z,28.87
2018-12-29T06:16:33.356Z,29.27
2018-12-29T06:19:01.801Z,29.60
2018-12-29T06:21:30.264Z,30.77
2018-12-29T06:23:58.721Z,30.37
2018-12-29T06:26:27.169Z,30.23
2018-12-29T06:28:55.628Z,29.37
2018-12-29T06:31:24.071Z,28.70
2018-12-29T06:33:52.523Z,29.30
2018-12-29T06:36:21.033Z,30.03
2018-12-29T06:38:49.757Z,30.10
2018-12-29T06:41:18.209Z,31.20
2018-12-29T06:43:46.708Z,30.40
2018-12-29T06:46:15.144Z,30.77
2018-12-29T06:48:43.608Z,29.83
2018-12-29T06:51:12.052Z,30.13
2018-12-29T06:53:40.515Z,30.90
2018-12-29T06:56:09.032Z,31.23
2018-12-29T06:58:37.496Z,29.23
2018-12-29T07:01:05.948Z,30.83
2018-12-29T07:03:34.410Z,32.30
2018-12-29T07:06:02.849Z,27.93
2018-12-29T07:08:31.292Z,29.57
2018-12-29T07:10:59.763Z,26.83
2018-12-29T07:13:28.205Z,29.17
2018-12-29T07:15:56.664Z,29.87
2018-12-29T07:18:25.105Z,29.07
2018-12-29T07:20:53.560Z,28.73
2018-12-29T07:23:22.032Z,29.63
2018-12-29T07:25:50.496Z,30.67
2018-12-29T07:28:18.940Z,29.30
2018-12-29T07:30:47.399Z,29.90
2018-12-29T07:33:15.850Z,28.57
2018-12-29T07:35:44.304Z,27.90
2018-12-29T07:38:12.749Z,26.77
2018-12-29T07:40:41.217Z,30.37
2018-12-29T07:43:09.765Z,22.97
2018-12-29T07:45:38.233Z,27.00
2018-12-29T07:48:06.689Z,26.87
2018-12-29T07:50:35.136Z,27.53
2018-12-29T07:53:03.610Z,26.80
2018-12-29T07:55:32.044Z,27.20
2018-12-29T07:58:00.514Z,27.87
2018-12-29T08:00:28.979Z,24.77
2018-12-29T08:02:57.521Z,27.77
2018-12-29T08:05:25.965Z,26.47
2018-12-29T08:07:54.423Z,28.67
2018-12-29T08:10:22.928Z,24.33
2018-12-29T08:12:51.397Z,26.00
2018-12-29T08:15:19.845Z,26.60
2018-12-29T08:17:48.301Z,25.87
2018-12-29T08:20:16.740Z,24.73
2018-12-29T08:22:45.273Z,26.47
2018-12-29T08:25:13.726Z,25.17
2018-12-29T08:27:42.467Z,24.97
2018-12-29T08:30:10.904Z,24.73
2018-12-29T08:32:42.307Z,25.63
2018-12-29T08:35:10.824Z,24.47
2018-12-29T08:37:39.285Z,25.17
2018-12-29T08:40:07.729Z,25.30
2018-12-29T08:42:36.183Z,24.70
2018-12-29T08:45:04.871Z,23.57
2018-12-29T08:47:33.412Z,23.20
2018-12-29T08:50:01.865Z,23.33
2018-12-29T08:52:30.372Z,23.67
2018-12-29T08:54:58.976Z,23.07
2018-12-29T08:57:30.127Z,23.00
2018-12-29T08:59:58.588Z,23.47
2018-12-29T09:02:27.028Z,22.60
2018-12-29T09:04:55.488Z,21.10
2018-12-29T09:07:23.925Z,22.67
2018-12-29T09:09:53.381Z,22.03
2018-12-29T09:12:21.820Z,22.60
2018-12-29T09:14:51.652Z,22.23
2018-12-29T09:17:20.200Z,23.10
2018-12-29T09:19:48.656Z,21.67
2018-12-29T09:22:17.116Z,21.13
2018-12-29T09:24:45.572Z,20.57
2018-12-29T09:27:14.011Z,21.30
2018-12-29T09:29:42.471Z,22.83
2018-12-29T09:32:10.975Z,22.60
2018-12-29T09:34:39.436Z,23.00
2018-12-29T09:37:07.950Z,22.90
2018-12-29T09:39:38.949Z,21.10
2018-12-29T09:42:07.410Z,23.03
2018-12-29T09:44:35.836Z,22.03
2018-12-29T09:47:07.288Z,22.77
2018-12-29T09:49:35.740Z,23.60
2018-12-29T09:52:04.216Z,23.40
2018-12-29T09:54:32.655Z,22.60
2018-12-29T09:57:01.196Z,23.27
2018-12-29T09:59:29.700Z,22.83
2018-12-29T10:01:58.172Z,21.47
2018-12-29T10:04:26.691Z,21.00
2018-12-29T10:06:55.424Z,21.13
2018-12-29T10:09:24.125Z,21.17
2018-12-29T10:11:52.648Z,22.50
2018-12-29T10:14:21.087Z,22.13
2018-12-29T10:16:49.552Z,21.23
2018-12-29T10:19:18.026Z,21.40
2018-12-29T10:21:46.555Z,21.63
2018-12-29T10:24:15.057Z,21.93
2018-12-29T10:26:43.516Z,22.60
2018-12-29T10:29:11.965Z,23.43
2018-12-29T10:31:40.421Z,21.57
2018-12-29T10:34:08.867Z,21.83
2018-12-29T10:36:37.399Z,21.50
2018-12-29T10:39:06.809Z,21.30
2018-12-29T10:41:35.263Z,20.60
2018-12-29T10:44:03.716Z,20.63
2018-12-29T10:46:32.167Z,20.90
2018-12-29T10:49:00.681Z,21.57
2018-12-29T10:51:29.144Z,20.17
2018-12-29T10:53:57.581Z,20.80
2018-12-29T10:56:26.038Z,19.33
2018-12-29T10:58:54.484Z,19.70
2018-12-29T11:01:22.938Z,19.90
2018-12-29T11:03:51.403Z,18.60
2018-12-29T11:06:19.924Z,19.23
2018-12-29T11:08:48.380Z,19.93
2018-12-29T11:11:16.831Z,19.80
2018-12-29T11:13:45.288Z,19.37
2018-12-29T11:16:14.173Z,19.53
2018-12-29T11:18:42.632Z,19.03
2018-12-29T11:21:11.082Z,17.27
2018-12-29T11:23:42.040Z,17.70
2018-12-29T11:26:10.505Z,15.57
2018-12-29T11:28:38.998Z,17.60
2018-12-29T11:31:07.436Z,17.50
2018-12-29T11:33:35.897Z,17.37
2018-12-29T11:36:04.340Z,17.63
2018-12-29T11:38:34.289Z,17.10
2018-12-29T11:41:02.714Z,16.83
2018-12-29T11:43:31.176Z,16.87
2018-12-29T11:45:59.619Z,16.17
2018-12-29T11:48:28.079Z,16.33
2018-12-29T11:50:56.600Z,14.33
2018-12-29T11:53:25.207Z,16.67
2018-12-29T11:55:53.724Z,16.83
2018-12-29T11:58:22.169Z,16.90
2018-12-29T12:00:50.713Z,15.73
2018-12-29T12:03:22.116Z,14.47
2018-12-29T12:05:50.941Z,14.77
2018-12-29T12:08:19.473Z,14.87
2018-12-29T12:10:47.917Z,14.33
2018-12-29T12:13:17.321Z,13.67
2018-12-29T12:15:45.788Z,12.63
2018-12-29T12:18:14.514Z,13.83
2018-12-29T12:20:43.056Z,12.60
2018-12-29T12:23:11.589Z,12.57
2018-12-29T12:25:40.120Z,13.80
2018-12-29T12:28:08.637Z,13.33
2018-12-29T12:30:37.177Z,13.37
2018-12-29T12:33:05.608Z,14.20
2018-12-29T12:35:34.175Z,14.43
2018-12-29T12:38:02.988Z,14.50
2018-12-29T12:40:31.451Z,13.83
2018-12-29T12:42:59.966Z,14.20
2018-12-29T12:45:28.442Z,14.60
2018-12-29T12:47:56.954Z,14.17
2018-12-29T12:50:25.559Z,12.33
2018-12-29T12:52:54.068Z,13.83
2018-12-29T12:55:22.525Z,13.93
2018-12-29T12:57:52.330Z,12.53
2018-12-29T13:00:22.176Z,13.33
2018-12-29T13:02:50.900Z,11.70
2018-12-29T13:05:19.444Z,12.57
2018-12-29T13:07:47.957Z,12.17
2018-12-29T13:10:16.774Z,11.70
2018-12-29T13:12:45.249Z,10.83
2018-12-29T13:15:13.683Z,11.30
2018-12-29T13:17:42.152Z,11.27
2018-12-29T13:20:10.669Z,11.57
2018-12-29T13:22:39.161Z,13.00
2018-12-29T13:25:07.740Z,10.47
2018-12-29T13:27:36.284Z,11.27
2018-12-29T13:30:05.965Z,11.13
2018-12-29T13:32:34.497Z,11.20
2018-12-29T13:35:03.417Z,11.47
2018-12-29T13:37:32.021Z,11.83
2018-12-29T13:40:00.542Z,11.33
2018-12-29T13:42:30.098Z,10.53
2018-12-29T13:44:58.630Z,11.50
2018-12-29T13:47:30.349Z,10.90
2018-12-29T13:49:58.872Z,10.03
2018-12-29T13:52:27.384Z,11.37
2018-12-29T13:54:55.916Z,11.60
2018-12-29T13:57:25.264Z,11.93
2018-12-29T13:59:53.737Z,12.23
2018-12-29T14:02:22.186Z,9.03
2018-12-29T14:04:50.721Z,10.97
2018-12-29T14:07:19.161Z,9.93
2018-12-29T14:09:48.540Z,8.47
2018-12-29T14:12:17.057Z,9.33
2018-12-29T14:14:45.589Z,7.90
2018-12-29T14:17:16.805Z,9.10
2018-12-29T14:19:45.365Z,10.10
2018-12-29T14:22:13.881Z,8.43
2018-12-29T14:24:42.479Z,8.00
2018-12-29T14:27:10.997Z,9.93
2018-12-29T14:29:39.529Z,8.80
2018-12-29T14:32:08.045Z,12.27
2018-12-29T14:34:36.781Z,10.93
2018-12-29T14:37:05.381Z,10.60
2018-12-29T14:39:33.913Z,7.53
2018-12-29T14:42:02.428Z,8.73
2018-12-29T14:44:30.959Z,10.27
2018-12-29T14:46:59.767Z,10.57
2018-12-29T14:49:28.320Z,9.60
2018-12-29T14:51:57.199Z,8.23
2018-12-29T14:54:25.651Z,6.10
2018-12-29T14:56:54.264Z,6.83
2018-12-29T14:59:23.179Z,6.13
2018-12-29T15:01:51.641Z,7.10
2018-12-29T15:04:20.087Z,6.97
2018-12-29T15:06:48.524Z,7.17
2018-12-29T15:09:16.994Z,9.17
2018-12-29T15:11:45.741Z,7.80
2018-12-29T15:14:14.265Z,8.90
2018-12-29T15:16:42.985Z,8.60
2018-12-29T15:19:13.433Z,7.10
2018-12-29T15:21:41.896Z,7.23
2018-12-29T15:24:10.422Z,8.73
2018-12-29T15:26:38.965Z,8.67
2018-12-29T15:29:07.776Z,7.73
2018-12-29T15:31:36.227Z,8.67
2018-12-29T15:34:04.750Z,9.63
2018-12-29T15:36:33.684Z,10.43
2018-12-29T15:39:02.195Z,10.20
2018-12-29T15:41:30.724Z,8.77
2018-12-29T15:43:59.544Z,11.67
2018-12-29T15:46:28.081Z,14.23
2018-12-29T15:48:56.655Z,11.47
2018-12-29T15:51:25.594Z,9.87
2018-12-29T15:53:54.105Z,10.40
2018-12-29T15:56:22.925Z,12.17
2018-12-29T15:58:51.460Z,11.53
2018-12-29T16:01:20.368Z,8.83
2018-12-29T16:03:48.934Z,10.30
2018-12-29T16:06:17.454Z,12.77
2018-12-29T16:08:45.997Z,15.13
2018-12-29T16:11:14.504Z,12.80
2018-12-29T16:13:43.257Z,13.17
2018-12-29T16:16:11.807Z,13.57
2018-12-29T16:18:40.340Z,12.80
2018-12-29T16:21:09.103Z,15.07
2018-12-29T16:23:37.639Z,14.17
2018-12-29T16:26:12.842Z,13.60
2018-12-29T16:28:36.548Z,12.50
2018-12-29T16:31:05.430Z,11.43
2018-12-29T16:33:34.264Z,14.07
2018-12-29T16:36:03.160Z,11.37
2018-12-29T16:38:31.710Z,11.67
2018-12-29T16:41:00.630Z,12.23
2018-12-29T16:43:29.160Z,12.30
2018-12-29T16:45:57.670Z,13.57
2018-12-29T16:48:26.188Z,11.80
2018-12-29T16:50:55.057Z,11.43
2018-12-29T16:53:29.116Z,11.37
2018-12-29T16:55:53.869Z,11.40
2018-12-29T16:58:22.384Z,11.73
2018-12-29T17:00:51.188Z,11.70
2018-12-29T17:03:19.722Z,9.93
2018-12-29T17:05:48.263Z,10.87
2018-12-29T17:08:16.797Z,10.97
2018-12-29T17:10:47.019Z,11.20
2018-12-29T17:13:15.562Z,11.53
2018-12-29T17:15:44.173Z,11.17
2018-12-29T17:18:12.893Z,9.33
2018-12-29T17:20:41.488Z,10.87
2018-12-29T17:23:10.005Z,11.20
2018-12-29T17:25:39.184Z,11.50
2018-12-29T17:28:07.701Z,11.23
2018-12-29T17:30:36.271Z,12.00
2018-12-29T17:33:04.802Z,11.97
2018-12-29T17:35:33.544Z,10.83
2018-12-29T17:38:02.057Z,11.83
2018-12-29T17:40:30.577Z,11.13
2018-12-29T17:42:59.109Z,13.17
2018-12-29T17:45:27.620Z,13.57
2018-12-29T17:47:56.490Z,14.50
2018-12-29T17:50:25.440Z,14.87
2018-12-29T17:52:53.891Z,14.80
2018-12-29T17:55:22.403Z,15.47
2018-12-29T17:57:51.335Z,16.37
2018-12-29T18:00:19.855Z,16.40
2018-12-29T18:02:48.480Z,14.10
2018-12-29T18:05:17.011Z,17.00
2018-12-29T18:07:45.826Z,17.53
2018-12-29T18:10:14.340Z,15.20
2018-12-29T18:12:42.897Z,18.47
2018-12-29T18:15:11.401Z,18.23
2018-12-29T18:17:40.136Z,18.00
2018-12-29T18:20:08.651Z,18.03
2018-12-29T18:22:37.180Z,19.53
2018-12-29T18:25:05.709Z,16.40
2018-12-29T18:27:34.251Z,19.23
2018-12-29T18:30:02.852Z,21.23
2018-12-29T18:32:31.368Z,20.17
2018-12-29T18:34:59.901Z,19.23
2018-12-29T18:37:28.426Z,20.37
2018-12-29T18:39:57.311Z,19.87
2018-12-29T18:42:25.854Z,20.63
2018-12-29T18:44:54.369Z,19.77
2018-12-29T18:47:22.893Z,19.70
2018-12-29T18:49:51.421Z,22.37
2018-12-29T18:52:20.339Z,20.93
2018-12-29T18:54:48.876Z,20.23
2018-12-29T18:57:17.399Z,20.40
2018-12-29T18:59:45.935Z,21.43
2018-12-29T19:02:14.450Z,23.47
2018-12-29T19:04:43.294Z,23.13
2018-12-29T19:07:12.378Z,23.97
2018-12-29T19:09:40.918Z,23.63
2018-12-29T19:12:11.230Z,23.33
2018-12-29T19:14:39.612Z,23.67
2018-12-29T19:17:08.065Z,21.87
2018-12-29T19:19:36.896Z,22.87
2018-12-29T19:22:05.413Z,22.87
2018-12-29T19:24:33.957Z,22.40
2018-12-29T19:27:02.461Z,23.70
2018-12-29T19:29:30.971Z,22.50
2018-12-29T19:31:59.911Z,23.00
2018-12-29T19:34:28.827Z,24.63
2018-12-29T19:36:57.763Z,20.77
2018-12-29T19:39:26.681Z,25.27
2018-12-29T19:41:56.335Z,23.67
2018-12-29T19:44:25.371Z,21.67
2018-12-29T19:46:54.212Z,24.27
2018-12-29T19:49:22.803Z,23.17
2018-12-29T19:51:51.339Z,23.47
2018-12-29T19:54:20.157Z,24.23
2018-12-29T19:56:48.701Z,24.20
2018-12-29T19:59:17.529Z,21.40
2018-12-29T20:01:46.433Z,22.57
2018-12-29T20:04:15.252Z,20.27
2018-12-29T20:06:43.838Z,24.70
2018-12-29T20:09:12.292Z,18.03
2018-12-29T20:11:40.845Z,23.50
2018-12-29T20:14:09.449Z,22.13
2018-12-29T20:16:37.918Z,24.20
2018-12-29T20:19:06.790Z,22.83
2018-12-29T20:21:35.300Z,24.30
2018-12-29T20:24:03.911Z,22.83
2018-12-29T20:26:32.456Z,26.30
2018-12-29T20:29:00.993Z,26.07
2018-12-29T20:31:29.532Z,25.13
2018-12-29T20:33:58.132Z,25.90
2018-12-29T20:36:26.691Z,27.37
2018-12-29T20:38:55.204Z,24.40
2018-12-29T20:41:23.644Z,27.73
2018-12-29T20:43:52.104Z,27.47
2018-12-29T20:46:20.624Z,27.53
2018-12-29T20:48:49.241Z,27.57
2018-12-29T20:51:17.756Z,27.67
2018-12-29T20:53:46.744Z,25.67
2018-12-29T20:56:15.201Z,23.63
2018-12-29T20:58:43.741Z,26.53
2018-12-29T21:01:12.251Z,25.43
2018-12-29T21:03:41.598Z,23.60
2018-12-29T21:06:10.110Z,26.23
2018-12-29T21:08:38.648Z,26.60
2018-12-29T21:11:07.568Z,26.30
2018-12-29T21:13:36.103Z,27.37
2018-12-29T21:16:04.693Z,27.27
2018-12-29T21:18:33.229Z,26.70
2018-12-29T21:21:01.755Z,28.00
2018-12-29T21:23:30.290Z,25.17
2018-12-29T21:25:58.797Z,23.33
2018-12-29T21:28:27.343Z,23.73
2018-12-29T21:30:56.099Z,25.23
2018-12-29T21:33:24.727Z,26.20
2018-12-29T21:35:53.640Z,23.07
2018-12-29T21:38:22.408Z,22.87
2018-12-29T21:40:50.943Z,21.23
2018-12-29T21:43:19.500Z,22.30
2018-12-29T21:45:48.047Z,22.43
2018-12-29T21:48:16.552Z,21.73
2018-12-29T21:50:45.097Z,20.30
2018-12-29T21:53:13.614Z,21.00
2018-12-29T21:55:43.335Z,16.93
2018-12-29T21:58:11.875Z,19.07
2018-12-29T22:00:40.411Z,20.17
2018-12-29T22:03:09.221Z,17.77
2018-12-29T22:05:37.789Z,18.83
2018-12-29T22:08:06.301Z,17.40
2018-12-29T22:10:34.843Z,17.33
2018-12-29T22:13:03.373Z,16.93
2018-12-29T22:15:31.917Z,15.93
2018-12-29T22:18:00.415Z,14.70
2018-12-29T22:20:33.263Z,14.20
2018-12-29T22:22:59.760Z,13.77
2018-12-29T22:25:28.196Z,11.93
2018-12-29T22:27:56.739Z,11.80
2018-12-29T22:30:25.568Z,12.47
2018-12-29T22:32:54.097Z,11.40
2018-12-29T22:35:22.623Z,12.90
2018-12-29T22:37:51.153Z,13.70
2018-12-29T22:40:19.911Z,13.97
2018-12-29T22:42:48.378Z,10.63
2018-12-29T22:45:16.895Z,12.53
2018-12-29T22:47:45.420Z,12.47
2018-12-29T22:50:13.932Z,12.27
2018-12-29T22:52:42.468Z,10.87
2018-12-29T22:55:10.917Z,10.60
2018-12-29T22:57:39.748Z,11.73
2018-12-29T23:00:12.840Z,12.47
2018-12-29T23:02:41.449Z,11.67
2018-12-29T23:05:09.962Z,12.83
2018-12-29T23:07:38.637Z,13.13
2018-12-29T23:10:07.614Z,11.07
2018-12-29T23:12:36.245Z,11.20
2018-12-29T23:15:05.295Z,12.47
2018-12-29T23:17:33.852Z,12.07
2018-12-29T23:20:02.378Z,11.37
2018-12-29T23:22:31.218Z,11.63
2018-12-29T23:24:59.753Z,9.57
2018-12-29T23:27:28.691Z,9.60
2018-12-29T23:29:57.214Z,8.30
2018-12-29T23:32:25.808Z,6.90
2018-12-29T23:34:54.364Z,6.63
2018-12-29T23:37:22.957Z,5.97
2018-12-29T23:39:51.796Z,4.87
2018-12-29T23:42:20.307Z,3.67
2018-12-29T23:44:48.838Z,3.73
2018-12-29T23:47:17.353Z,3.33
2018-12-29T23:49:45.883Z,3.30
2018-12-29T23:52:14.696Z,2.67
2018-12-29T23:54:43.231Z,2.97
2018-12-29T23:57:11.955Z,3.23
2018-12-29T23:59:40.487Z,2.67
